createdAt,value
2022-11-11T00:02:31.152Z,10.20
2022-11-11T00:05:17.622Z,10.20
2022-11-11T00:08:03.217Z,10.20
2022-11-11T00:10:48.751Z,10.20
2022-11-11T00:13:35.159Z,10.30
2022-11-11T00:16:21.123Z,10.30
2022-11-11T00:19:25.902Z,10.30
2022-11-11T00:22:42.566Z,10.30
2022-11-11T00:25:28.478Z,10.30
2022-11-11T00:28:17.597Z,10.40
2022-11-11T00:31:08.516Z,10.40
2022-11-11T00:33:54.499Z,10.40
2022-11-11T00:36:44.534Z,10.40
2022-11-11T00:39:30.664Z,10.40
2022-11-11T00:42:16.654Z,10.40
2022-11-11T00:45:02.487Z,10.50
2022-11-11T00:48:08.042Z,10.50
2022-11-11T00:50:59.594Z,10.50
2022-11-11T00:53:45.503Z,10.50
2022-11-11T00:56:32.520Z,10.50
2022-11-11T00:59:17.923Z,10.50
2022-11-11T01:02:04.042Z,10.50
2022-11-11T01:04:49.616Z,10.60
2022-11-11T01:07:35.430Z,10.60
2022-11-11T01:10:39.614Z,10.60
2022-11-11T01:13:33.794Z,10.60
2022-11-11T01:16:23.247Z,10.50
2022-11-11T01:19:08.854Z,10.60
2022-11-11T01:21:54.782Z,10.60
2022-11-11T01:24:41.017Z,10.50
2022-11-11T01:27:26.499Z,10.50
2022-11-11T01:30:14.280Z,10.50
2022-11-11T01:33:00.762Z,10.50
2022-11-11T01:35:46.510Z,10.50
2022-11-11T01:38:31.841Z,10.50
2022-11-11T01:41:33.104Z,10.50
2022-11-11T01:44:43.092Z,10.50
2022-11-11T01:48:16.660Z,10.50
2022-11-11T01:50:56.764Z,10.50
2022-11-11T01:53:43.861Z,10.50
2022-11-11T01:56:30.066Z,10.40
2022-11-11T01:59:17.883Z,10.40
2022-11-11T02:02:32.107Z,10.50
2022-11-11T02:05:38.375Z,10.40
2022-11-11T02:08:36.783Z,10.50
2022-11-11T02:11:42.978Z,10.50
2022-11-11T02:14:40.256Z,10.40
2022-11-11T02:17:29.743Z,10.50
2022-11-11T02:20:19.427Z,10.40
2022-11-11T02:23:28.869Z,10.40
2022-11-11T02:26:17.195Z,10.40
2022-11-11T02:29:09.415Z,10.40
2022-11-11T02:31:55.619Z,10.40
2022-11-11T02:34:41.285Z,10.40
2022-11-11T02:37:27.769Z,10.40
2022-11-11T02:40:39.548Z,10.40
2022-11-11T02:43:25.402Z,10.40
2022-11-11T02:46:11.553Z,10.40
2022-11-11T02:48:57.378Z,10.30
2022-11-11T02:51:43.508Z,10.30
2022-11-11T02:54:29.800Z,10.30
2022-11-11T02:57:15.705Z,10.30
2022-11-11T03:00:02.714Z,10.30
2022-11-11T03:02:50.085Z,10.30
2022-11-11T03:05:36.186Z,10.20
2022-11-11T03:08:21.968Z,10.30
2022-11-11T03:11:07.929Z,10.20
2022-11-11T03:14:07.104Z,10.20
2022-11-11T03:17:11.847Z,10.20
2022-11-11T03:20:17.174Z,10.20
2022-11-11T03:23:07.965Z,10.20
2022-11-11T03:25:58.099Z,10.20
2022-11-11T03:28:43.996Z,10.10
2022-11-11T03:31:29.907Z,10.10
2022-11-11T03:34:18.290Z,10.10
2022-11-11T03:37:28.026Z,10.10
2022-11-11T03:40:13.929Z,10.10
2022-11-11T03:43:04.077Z,10.10
2022-11-11T03:45:55.684Z,10.10
2022-11-11T03:48:41.461Z,10.10
2022-11-11T03:51:27.157Z,10.10
2022-11-11T03:54:13.101Z,10.10
2022-11-11T03:57:18.646Z,10.10
2022-11-11T04:00:13.363Z,10.10
2022-11-11T04:03:30.720Z,10.10
2022-11-11T04:06:35.125Z,10.00
2022-11-11T04:09:39.527Z,10.00
2022-11-11T04:12:26.557Z,10.00
2022-11-11T04:15:30.925Z,10.00
2022-11-11T04:18:16.421Z,10.00
2022-11-11T04:21:20.938Z,10.00
2022-11-11T04:24:26.435Z,10.00
2022-11-11T04:27:14.457Z,9.90
2022-11-11T04:30:02.909Z,9.90
2022-11-11T04:32:48.652Z,9.80
2022-11-11T04:35:36.563Z,9.90
2022-11-11T04:38:41.799Z,9.90
2022-11-11T04:41:40.790Z,9.80
2022-11-11T04:44:51.184Z,9.80
2022-11-11T04:47:37.077Z,9.80
2022-11-11T04:50:26.628Z,9.80
2022-11-11T04:53:15.931Z,9.80
2022-11-11T04:56:21.512Z,9.80
2022-11-11T04:59:16.205Z,9.80
2022-11-11T05:02:21.147Z,9.70
2022-11-11T05:05:07.061Z,9.80
2022-11-11T05:08:12.463Z,9.70
2022-11-11T05:11:00.089Z,9.70
2022-11-11T05:14:04.776Z,9.70
2022-11-11T05:17:10.002Z,9.70
2022-11-11T05:20:13.904Z,9.70
2022-11-11T05:22:59.590Z,9.70
2022-11-11T05:26:22.265Z,9.70
2022-11-11T05:29:09.567Z,9.60
2022-11-11T05:31:55.132Z,9.60
2022-11-11T05:34:42.080Z,9.60
2022-11-11T05:37:28.037Z,9.60
2022-11-11T05:40:13.712Z,9.60
2022-11-11T05:43:00.228Z,9.60
2022-11-11T05:45:45.801Z,9.60
2022-11-11T05:48:32.608Z,9.60
2022-11-11T05:51:28.284Z,9.60
2022-11-11T05:54:14.832Z,9.60
2022-11-11T05:57:00.766Z,9.60
2022-11-11T05:59:48.363Z,9.50
2022-11-11T06:02:34.160Z,9.50
2022-11-11T06:05:19.540Z,9.40
2022-11-11T06:08:05.924Z,9.40
2022-11-11T06:10:53.256Z,9.40
2022-11-11T06:13:38.839Z,9.40
2022-11-11T06:16:24.911Z,9.40
2022-11-11T06:19:10.514Z,9.40
2022-11-11T06:21:58.858Z,9.30
2022-11-11T06:25:04.581Z,9.30
2022-11-11T06:27:49.996Z,9.30
2022-11-11T06:30:50.145Z,9.30
2022-11-11T06:33:37.953Z,9.20
2022-11-11T06:36:23.472Z,9.30
2022-11-11T06:39:09.043Z,9.20
2022-11-11T06:41:54.691Z,9.20
2022-11-11T06:44:40.475Z,9.20
2022-11-11T06:47:25.960Z,9.20
2022-11-11T06:50:11.556Z,9.10
2022-11-11T06:52:57.226Z,9.10
2022-11-11T06:55:43.282Z,9.10
2022-11-11T06:58:29.117Z,9.10
2022-11-11T07:01:14.848Z,9.10
2022-11-11T07:04:02.943Z,9.10
2022-11-11T07:06:48.412Z,9.10
2022-11-11T07:09:33.939Z,9.10
2022-11-11T07:12:21.320Z,9.00
2022-11-11T07:15:07.419Z,9.00
2022-11-11T07:17:53.693Z,9.00
2022-11-11T07:20:39.873Z,9.00
2022-11-11T07:23:27.609Z,9.00
2022-11-11T07:26:13.136Z,9.00
2022-11-11T07:28:59.003Z,9.00
2022-11-11T07:31:46.989Z,9.10
2022-11-11T07:34:32.853Z,9.00
2022-11-11T07:37:18.268Z,9.10
2022-11-11T07:40:06.311Z,9.10
2022-11-11T07:42:52.767Z,9.10
2022-11-11T07:45:38.349Z,9.10
2022-11-11T07:48:24.355Z,9.10
2022-11-11T07:51:10.522Z,9.20
2022-11-11T07:53:56.981Z,9.20
2022-11-11T07:56:43.548Z,9.20
2022-11-11T07:59:30.229Z,9.20
2022-11-11T08:02:16.503Z,9.20
2022-11-11T08:05:02.698Z,9.20
2022-11-11T08:07:48.931Z,9.20
2022-11-11T08:10:35.385Z,9.30
2022-11-11T08:13:40.536Z,9.30
2022-11-11T08:16:26.874Z,9.30
2022-11-11T08:19:13.121Z,9.40
2022-11-11T08:21:58.959Z,9.40
2022-11-11T08:25:02.790Z,9.40
2022-11-11T08:27:50.043Z,9.30
2022-11-11T08:30:35.604Z,9.40
2022-11-11T08:33:37.184Z,9.50
2022-11-11T08:36:25.384Z,9.40
2022-11-11T08:39:13.057Z,9.40
2022-11-11T08:41:58.422Z,9.50
2022-11-11T08:44:44.436Z,9.50
2022-11-11T08:47:30.397Z,9.40
2022-11-11T08:50:16.414Z,9.40
2022-11-11T08:53:02.483Z,9.40
2022-11-11T08:55:47.884Z,9.50
2022-11-11T08:58:33.655Z,9.50
2022-11-11T09:01:19.425Z,9.50
2022-11-11T09:04:30.116Z,9.60
2022-11-11T09:07:12.593Z,9.50
2022-11-11T09:09:58.458Z,9.70
2022-11-11T09:12:44.088Z,9.60
2022-11-11T09:15:30.839Z,9.70
2022-11-11T09:18:16.477Z,9.70
2022-11-11T09:21:02.280Z,9.80
2022-11-11T09:23:47.957Z,9.80
2022-11-11T09:26:33.714Z,9.80
2022-11-11T09:29:21.223Z,9.80
2022-11-11T09:32:06.853Z,9.80
2022-11-11T09:34:52.517Z,9.80
2022-11-11T09:37:37.977Z,9.80
2022-11-11T09:40:26.026Z,9.90
2022-11-11T09:43:33.176Z,9.90
2022-11-11T09:46:32.628Z,9.90
2022-11-11T09:49:45.994Z,9.90
2022-11-11T09:52:42.332Z,9.90
2022-11-11T09:55:53.090Z,9.90
2022-11-11T09:58:45.042Z,9.90
2022-11-11T10:01:37.480Z,9.90
2022-11-11T10:04:52.021Z,10.10
2022-11-11T10:07:51.254Z,10.00
2022-11-11T10:10:48.700Z,10.10
2022-11-11T10:13:37.497Z,10.20
2022-11-11T10:16:36.384Z,10.40
2022-11-11T10:19:34.238Z,10.30
2022-11-11T10:22:31.252Z,10.30
2022-11-11T10:25:30.500Z,10.30
2022-11-11T10:28:19.159Z,10.30
2022-11-11T10:31:12.943Z,10.30
2022-11-11T10:34:28.764Z,10.50
2022-11-11T10:37:20.233Z,10.60
2022-11-11T10:40:26.055Z,10.70
2022-11-11T10:43:27.828Z,10.80
2022-11-11T10:46:24.812Z,10.90
2022-11-11T10:49:21.441Z,11.00
2022-11-11T10:52:10.676Z,11.00
2022-11-11T10:55:20.556Z,11.00
2022-11-11T10:58:30.938Z,11.00
2022-11-11T11:01:21.871Z,11.10
2022-11-11T11:04:15.920Z,11.00
2022-11-11T11:07:05.808Z,11.10
2022-11-11T11:09:55.392Z,11.20
2022-11-11T11:12:45.477Z,11.30
2022-11-11T11:15:34.925Z,11.40
2022-11-11T11:18:20.833Z,11.50
2022-11-11T11:21:08.550Z,11.50
2022-11-11T11:23:53.999Z,11.60
2022-11-11T11:26:51.814Z,11.70
2022-11-11T11:29:42.388Z,11.80
2022-11-11T11:32:30.884Z,11.90
2022-11-11T11:35:31.963Z,12.00
2022-11-11T11:38:19.039Z,12.20
2022-11-11T11:41:05.261Z,12.30
2022-11-11T11:43:50.618Z,12.30
2022-11-11T11:46:44.217Z,12.40
2022-11-11T11:49:55.103Z,12.40
2022-11-11T11:52:49.407Z,12.50
2022-11-11T11:55:42.603Z,12.50
2022-11-11T11:58:42.428Z,12.60
2022-11-11T12:01:43.256Z,12.60
2022-11-11T12:05:21.355Z,12.70
2022-11-11T12:08:26.303Z,12.80
2022-11-11T12:11:17.520Z,12.90
2022-11-11T12:14:28.079Z,13.00
2022-11-11T12:17:22.502Z,13.20
2022-11-11T12:20:16.763Z,13.20
2022-11-11T12:23:05.056Z,13.30
2022-11-11T12:26:28.137Z,13.40
2022-11-11T12:29:54.296Z,13.40
2022-11-11T12:33:00.351Z,13.30
2022-11-11T12:35:55.930Z,13.40
2022-11-11T12:38:50.820Z,13.40
2022-11-11T12:41:52.583Z,13.40
2022-11-11T12:44:57.381Z,13.30
2022-11-11T12:48:13.428Z,13.40
2022-11-11T12:51:11.893Z,13.40
2022-11-11T12:54:05.488Z,13.50
2022-11-11T12:57:24.145Z,13.40
2022-11-11T13:00:21.131Z,13.40
2022-11-11T13:03:40.990Z,13.40
2022-11-11T13:06:35.800Z,13.40
2022-11-11T13:09:33.016Z,13.40
2022-11-11T13:12:58.558Z,13.40
2022-11-11T13:15:47.879Z,13.40
2022-11-11T13:18:45.626Z,13.40
2022-11-11T13:21:52.678Z,13.40
2022-11-11T13:24:38.519Z,13.50
2022-11-11T13:27:38.894Z,13.60
2022-11-11T13:31:00.462Z,13.40
2022-11-11T13:33:56.374Z,13.50
2022-11-11T13:36:52.208Z,13.50
2022-11-11T13:39:46.801Z,13.50
2022-11-11T13:42:40.769Z,13.50
2022-11-11T13:45:38.018Z,13.50
2022-11-11T13:48:44.472Z,13.50
2022-11-11T13:51:46.791Z,13.50
2022-11-11T13:54:40.698Z,13.50
2022-11-11T13:57:30.483Z,13.50
2022-11-11T14:00:17.467Z,13.40
2022-11-11T14:03:23.041Z,13.40
2022-11-11T14:06:20.236Z,13.40
2022-11-11T14:09:08.654Z,13.30
2022-11-11T14:12:22.684Z,13.30
2022-11-11T14:15:44.010Z,13.30
2022-11-11T14:18:44.174Z,13.30
2022-11-11T14:22:03.572Z,13.30
2022-11-11T14:24:49.330Z,13.20
2022-11-11T14:27:35.832Z,13.20
2022-11-11T14:30:31.044Z,13.20
2022-11-11T14:33:34.998Z,13.20
2022-11-11T14:36:39.709Z,13.10
2022-11-11T14:39:49.759Z,13.10
2022-11-11T14:42:35.672Z,13.00
2022-11-11T14:45:31.060Z,13.00
2022-11-11T14:48:56.508Z,13.00
2022-11-11T14:51:47.254Z,12.90
2022-11-11T14:54:44.149Z,12.80
2022-11-11T14:57:43.625Z,12.80
2022-11-11T15:00:32.927Z,12.80
2022-11-11T15:03:38.747Z,12.80
2022-11-11T15:06:32.668Z,12.70
2022-11-11T15:09:43.435Z,12.60
2022-11-11T15:12:49.877Z,12.60
2022-11-11T15:15:46.748Z,12.60
2022-11-11T15:18:54.951Z,12.50
2022-11-11T15:22:01.157Z,12.50
2022-11-11T15:25:19.414Z,12.40
2022-11-11T15:28:13.787Z,12.30
2022-11-11T15:31:34.184Z,12.30
2022-11-11T15:34:41.645Z,12.20
2022-11-11T15:37:28.244Z,12.20
2022-11-11T15:40:20.669Z,12.10
2022-11-11T15:43:06.164Z,12.10
2022-11-11T15:46:05.873Z,12.00
2022-11-11T15:48:54.451Z,12.00
2022-11-11T15:51:39.762Z,11.90
2022-11-11T15:54:26.530Z,11.90
2022-11-11T15:57:24.227Z,11.80
2022-11-11T16:00:25.228Z,11.70
2022-11-11T16:03:20.993Z,11.70
2022-11-11T16:06:13.605Z,11.70
2022-11-11T16:08:58.934Z,11.60
2022-11-11T16:11:44.877Z,11.50
2022-11-11T16:14:41.251Z,11.50
2022-11-11T16:17:31.298Z,11.40
2022-11-11T16:20:22.422Z,11.40
2022-11-11T16:23:11.889Z,11.40
2022-11-11T16:26:00.988Z,11.30
2022-11-11T16:28:49.721Z,11.30
2022-11-11T16:31:39.600Z,11.20
2022-11-11T16:34:29.686Z,11.20
2022-11-11T16:37:17.371Z,11.10
2022-11-11T16:40:28.736Z,11.10
2022-11-11T16:43:14.404Z,11.10
2022-11-11T16:46:14.501Z,11.10
2022-11-11T16:49:12.589Z,11.00
2022-11-11T16:52:15.403Z,11.00
2022-11-11T16:55:02.188Z,10.90
2022-11-11T16:57:48.398Z,10.80
2022-11-11T17:00:33.959Z,10.80
2022-11-11T17:03:27.020Z,10.70
2022-11-11T17:06:13.238Z,10.60
2022-11-11T17:08:59.109Z,10.70
2022-11-11T17:11:46.390Z,10.60
2022-11-11T17:14:35.286Z,10.70
2022-11-11T17:17:21.238Z,10.60
2022-11-11T17:20:15.677Z,10.60
2022-11-11T17:23:06.359Z,10.50
2022-11-11T17:25:56.780Z,10.50
2022-11-11T17:28:42.849Z,10.50
2022-11-11T17:31:28.766Z,10.40
2022-11-11T17:34:14.717Z,10.40
2022-11-11T17:37:05.707Z,10.40
2022-11-11T17:39:51.824Z,10.50
2022-11-11T17:42:37.913Z,10.40
2022-11-11T17:45:23.830Z,10.40
2022-11-11T17:48:11.071Z,10.40
2022-11-11T17:50:56.941Z,10.40
2022-11-11T17:53:42.738Z,10.40
2022-11-11T17:56:28.384Z,10.30
2022-11-11T17:59:14.268Z,10.30
2022-11-11T18:02:01.762Z,10.30
2022-11-11T18:04:47.396Z,10.30
2022-11-11T18:07:33.412Z,10.30
2022-11-11T18:10:19.111Z,10.30
2022-11-11T18:13:05.441Z,10.30
2022-11-11T18:15:50.958Z,10.30
2022-11-11T18:18:39.797Z,10.30
2022-11-11T18:21:29.161Z,10.30
2022-11-11T18:24:14.646Z,10.30
2022-11-11T18:27:03.603Z,10.30
2022-11-11T18:29:49.212Z,10.30
2022-11-11T18:32:35.217Z,10.30
2022-11-11T18:35:21.006Z,10.20
2022-11-11T18:38:08.433Z,10.20
2022-11-11T18:41:06.047Z,10.20
2022-11-11T18:43:54.616Z,10.10
2022-11-11T18:46:40.636Z,10.10
2022-11-11T18:49:32.003Z,10.10
2022-11-11T18:52:17.707Z,10.10
2022-11-11T18:55:05.383Z,10.00
2022-11-11T18:57:51.060Z,10.00
2022-11-11T19:00:36.709Z,10.00
2022-11-11T19:03:22.775Z,10.00
2022-11-11T19:06:10.988Z,10.00
2022-11-11T19:08:59.012Z,10.00
2022-11-11T19:11:46.771Z,9.90
2022-11-11T19:14:32.314Z,9.90
2022-11-11T19:17:18.149Z,9.90
2022-11-11T19:20:04.389Z,9.90
2022-11-11T19:22:50.082Z,9.80
2022-11-11T19:25:36.202Z,9.80
2022-11-11T19:28:21.967Z,9.80
2022-11-11T19:31:16.039Z,9.70
2022-11-11T19:34:01.826Z,9.70
2022-11-11T19:36:47.526Z,9.70
2022-11-11T19:39:35.216Z,9.60
2022-11-11T19:42:23.870Z,9.60
2022-11-11T19:45:10.200Z,9.50
2022-11-11T19:47:55.780Z,9.50
2022-11-11T19:50:42.765Z,9.40
2022-11-11T19:53:31.493Z,9.40
2022-11-11T19:56:22.126Z,9.30
2022-11-11T19:59:07.790Z,9.30
2022-11-11T20:01:54.710Z,9.20
2022-11-11T20:04:45.048Z,9.20
2022-11-11T20:07:31.182Z,9.20
2022-11-11T20:10:17.312Z,9.20
2022-11-11T20:13:03.478Z,9.20
2022-11-11T20:15:49.569Z,9.20
2022-11-11T20:18:38.183Z,9.10
2022-11-11T20:21:26.569Z,9.10
2022-11-11T20:24:20.780Z,9.00
2022-11-11T20:27:06.499Z,9.00
2022-11-11T20:30:08.831Z,9.00
2022-11-11T20:32:57.497Z,9.00
2022-11-11T20:35:43.230Z,9.00
2022-11-11T20:38:31.158Z,9.00
2022-11-11T20:41:18.886Z,9.00
2022-11-11T20:44:07.635Z,9.00
2022-11-11T20:46:53.488Z,9.00
2022-11-11T20:49:39.695Z,9.00
2022-11-11T20:52:25.677Z,9.00
2022-11-11T20:55:14.015Z,8.90
2022-11-11T20:58:01.102Z,8.80
2022-11-11T21:00:46.954Z,8.80
2022-11-11T21:03:33.308Z,8.70
2022-11-11T21:06:19.439Z,8.70
2022-11-11T21:09:10.451Z,8.60
2022-11-11T21:11:56.753Z,8.50
2022-11-11T21:14:44.145Z,8.50
2022-11-11T21:17:29.819Z,8.50
2022-11-11T21:20:16.076Z,8.40
2022-11-11T21:23:01.936Z,8.30
2022-11-11T21:25:47.903Z,8.30
2022-11-11T21:28:37.472Z,8.20
2022-11-11T21:31:26.837Z,8.20
2022-11-11T21:34:15.614Z,8.10
2022-11-11T21:37:03.765Z,8.10
2022-11-11T21:39:50.393Z,8.00
2022-11-11T21:42:37.456Z,8.00
2022-11-11T21:45:23.182Z,7.90
2022-11-11T21:48:08.952Z,7.90
2022-11-11T21:51:08.181Z,7.90
2022-11-11T21:54:02.559Z,7.80
2022-11-11T21:56:49.833Z,7.80
2022-11-11T21:59:35.410Z,7.90
2022-11-11T22:02:22.505Z,7.80
2022-11-11T22:05:08.420Z,7.70
2022-11-11T22:07:55.319Z,7.70
2022-11-11T22:10:40.905Z,7.70
2022-11-11T22:13:26.487Z,7.70
2022-11-11T22:16:16.733Z,7.70
2022-11-11T22:19:11.166Z,7.70
2022-11-11T22:21:56.825Z,7.70
2022-11-11T22:24:42.251Z,7.70
2022-11-11T22:27:28.145Z,7.70
2022-11-11T22:30:14.061Z,7.60
2022-11-11T22:33:02.091Z,7.60
2022-11-11T22:35:47.641Z,7.60
2022-11-11T22:38:33.950Z,7.60
2022-11-11T22:41:21.893Z,7.50
2022-11-11T22:44:07.706Z,7.50
2022-11-11T22:46:53.710Z,7.50
2022-11-11T22:49:39.096Z,7.40
2022-11-11T22:52:24.536Z,7.40
2022-11-11T22:55:10.088Z,7.40
2022-11-11T22:57:55.836Z,7.30
2022-11-11T23:00:41.531Z,7.40
2022-11-11T23:03:27.000Z,7.40
2022-11-11T23:06:16.331Z,7.30
2022-11-11T23:09:02.806Z,7.30
2022-11-11T23:11:48.272Z,7.30
2022-11-11T23:14:34.072Z,7.30
2022-11-11T23:17:19.874Z,7.20
2022-11-11T23:20:06.275Z,7.30
2022-11-11T23:22:52.093Z,7.30
2022-11-11T23:25:37.795Z,7.30
2022-11-11T23:28:23.714Z,7.20
2022-11-11T23:31:21.583Z,7.30
2022-11-11T23:34:08.065Z,7.20
2022-11-11T23:36:53.527Z,7.20
2022-11-11T23:39:38.966Z,7.10
2022-11-11T23:42:24.650Z,7.10
2022-11-11T23:45:10.388Z,7.00
2022-11-11T23:47:55.982Z,7.00
2022-11-11T23:50:41.620Z,6.90
2022-11-11T23:53:27.846Z,6.90
2022-11-11T23:56:13.643Z,6.80
2022-11-11T23:59:01.669Z,6.80
